sensor_id;sensor_type;location;lat;lon;timestamp;pressure;altitude;pressure_sealevel;temperature;humidity
29433;BME280;16405;53.964;13.448;2023-02-13T00:00:47;103201.94;;;6.14;100.00
29433;BME280;16405;53.964;13.448;2023-02-13T00:03:13;103197.63;;;6.16;100.00
29433;BME280;16405;53.964;13.448;2023-02-13T00:05:39;103192.31;;;6.13;100.00
29433;BME280;16405;53.964;13.448;2023-02-13T00:08:06;103200.16;;;6.13;100.00
29433;BME280;16405;53.964;13.448;2023-02-13T00:10:34;103194.88;;;6.05;100.00
29433;BME280;16405;53.964;13.448;2023-02-13T00:13:00;103192.25;;;6.07;100.00
29433;BME280;16405;53.964;13.448;2023-02-13T00:15:26;103183.53;;;6.05;100.00
29433;BME280;16405;53.964;13.448;2023-02-13T00:17:51;103189.66;;;6.08;100.00
29433;BME280;16405;53.964;13.448;2023-02-13T00:20:17;103184.41;;;6.07;100.00
29433;BME280;16405;53.964;13.448;2023-02-13T00:22:43;103180.97;;;6.09;100.00
29433;BME280;16405;53.964;13.448;2023-02-13T00:25:09;103178.34;;;6.08;100.00
29433;BME280;16405;53.964;13.448;2023-02-13T00:27:37;103181.00;;;6.12;100.00
29433;BME280;16405;53.964;13.448;2023-02-13T00:30:05;103186.19;;;6.09;100.00
29433;BME280;16405;53.964;13.448;2023-02-13T00:32:31;103183.59;;;6.09;100.00
29433;BME280;16405;53.964;13.448;2023-02-13T00:34:57;103175.72;;;6.08;100.00
29433;BME280;16405;53.964;13.448;2023-02-13T00:37:24;103187.91;;;6.09;99.75
29433;BME280;16405;53.964;13.448;2023-02-13T00:39:53;103191.47;;;6.12;99.24
29433;BME280;16405;53.964;13.448;2023-02-13T00:42:22;103187.09;;;6.11;98.67
29433;BME280;16405;53.964;13.448;2023-02-13T00:44:52;103192.28;;;6.08;98.64
29433;BME280;16405;53.964;13.448;2023-02-13T00:47:25;103186.16;;;6.06;97.86
29433;BME280;16405;53.964;13.448;2023-02-13T00:49:50;103191.38;;;6.06;97.47
29433;BME280;16405;53.964;13.448;2023-02-13T00:52:16;103194.88;;;6.05;97.02
29433;BME280;16405;53.964;13.448;2023-02-13T00:54:42;103198.34;;;6.06;97.03
29433;BME280;16405;53.964;13.448;2023-02-13T00:57:08;103200.03;;;6.02;96.50
29433;BME280;16405;53.964;13.448;2023-02-13T00:59:39;103191.34;;;6.03;96.12
29433;BME280;16405;53.964;13.448;2023-02-13T01:02:05;103191.38;;;6.05;95.98
29433;BME280;16405;53.964;13.448;2023-02-13T01:04:30;103203.56;;;6.04;95.99
29433;BME280;16405;53.964;13.448;2023-02-13T01:06:57;103205.31;;;6.07;95.75
29433;BME280;16405;53.964;13.448;2023-02-13T01:09:22;103201.84;;;6.06;96.24
29433;BME280;16405;53.964;13.448;2023-02-13T01:11:48;103204.47;;;6.05;96.15
29433;BME280;16405;53.964;13.448;2023-02-13T01:14:16;103198.28;;;6.00;96.15
29433;BME280;16405;53.964;13.448;2023-02-13T01:16:44;103193.09;;;6.03;96.44
29433;BME280;16405;53.964;13.448;2023-02-13T01:19:10;103200.06;;;6.04;96.69
29433;BME280;16405;53.964;13.448;2023-02-13T01:21:36;103187.00;;;6.04;96.61
29433;BME280;16405;53.964;13.448;2023-02-13T01:24:10;103196.56;;;6.02;97.27
29433;BME280;16405;53.964;13.448;2023-02-13T01:26:36;103199.19;;;6.02;97.38
29433;BME280;16405;53.964;13.448;2023-02-13T01:29:02;103198.31;;;6.01;97.53
29433;BME280;16405;53.964;13.448;2023-02-13T01:31:28;103197.44;;;6.01;97.24
29433;BME280;16405;53.964;13.448;2023-02-13T01:34:04;103191.31;;;5.99;97.90
29433;BME280;16405;53.964;13.448;2023-02-13T01:36:30;103192.19;;;5.99;97.54
29433;BME280;16405;53.964;13.448;2023-02-13T01:38:57;103192.22;;;6.01;97.63
29433;BME280;16405;53.964;13.448;2023-02-13T01:41:25;103192.19;;;5.99;98.09
29433;BME280;16405;53.964;13.448;2023-02-13T01:44:00;103186.91;;;5.96;98.19
29433;BME280;16405;53.964;13.448;2023-02-13T01:46:40;103192.13;;;5.94;98.47
29433;BME280;16405;53.964;13.448;2023-02-13T01:49:17;103191.25;;;5.95;98.19
29433;BME280;16405;53.964;13.448;2023-02-13T01:51:46;103186.91;;;5.96;98.50
29433;BME280;16405;53.964;13.448;2023-02-13T01:54:22;103181.66;;;5.94;98.61
29433;BME280;16405;53.964;13.448;2023-02-13T01:57:05;103177.25;;;5.92;98.56
29433;BME280;16405;53.964;13.448;2023-02-13T02:00:02;103171.13;;;5.91;98.88
29433;BME280;16405;53.964;13.448;2023-02-13T02:02:36;103173.72;;;5.91;98.67
29433;BME280;16405;53.964;13.448;2023-02-13T02:05:05;103166.75;;;5.90;98.60
29433;BME280;16405;53.964;13.448;2023-02-13T02:07:42;103172.00;;;5.90;98.88
29433;BME280;16405;53.964;13.448;2023-02-13T02:10:16;103168.50;;;5.90;99.02
29433;BME280;16405;53.964;13.448;2023-02-13T02:13:04;103168.44;;;5.84;99.09
29433;BME280;16405;53.964;13.448;2023-02-13T02:15:31;103166.66;;;5.81;98.72
29433;BME280;16405;53.964;13.448;2023-02-13T02:17:59;103158.75;;;5.78;99.15
29433;BME280;16405;53.964;13.448;2023-02-13T02:24:20;103158.72;;;5.76;99.12
29433;BME280;16405;53.964;13.448;2023-02-13T02:33:02;103156.09;;;5.73;99.05
29433;BME280;16405;53.964;13.448;2023-02-13T02:47:08;103160.41;;;5.71;99.11
29433;BME280;16405;53.964;13.448;2023-02-13T02:50:15;103156.91;;;5.69;98.91
29433;BME280;16405;53.964;13.448;2023-02-13T02:53:12;103147.31;;;5.68;98.62
29433;BME280;16405;53.964;13.448;2023-02-13T02:56:11;103142.03;;;5.65;98.79
29433;BME280;16405;53.964;13.448;2023-02-13T03:02:05;103143.75;;;5.62;98.03
29433;BME280;16405;53.964;13.448;2023-02-13T03:05:20;103143.75;;;5.62;98.17
29433;BME280;16405;53.964;13.448;2023-02-13T03:08:09;103146.38;;;5.63;96.97
29433;BME280;16405;53.964;13.448;2023-02-13T03:10:37;103138.59;;;5.66;97.19
29433;BME280;16405;53.964;13.448;2023-02-13T03:13:51;103130.75;;;5.68;96.30
29433;BME280;16405;53.964;13.448;2023-02-13T03:16:23;103139.50;;;5.68;96.18
29433;BME280;16405;53.964;13.448;2023-02-13T03:19:42;103143.91;;;5.72;96.03
29433;BME280;16405;53.964;13.448;2023-02-13T03:23:10;103144.72;;;5.70;95.92
29433;BME280;16405;53.964;13.448;2023-02-13T03:29:11;103139.44;;;5.65;95.20
29433;BME280;16405;53.964;13.448;2023-02-13T03:32:09;103144.66;;;5.65;95.15
29433;BME280;16405;53.964;13.448;2023-02-13T03:34:42;103142.03;;;5.62;94.78
29433;BME280;16405;53.964;13.448;2023-02-13T03:37:35;103148.13;;;5.63;94.26
29433;BME280;16405;53.964;13.448;2023-02-13T03:40:33;103149.88;;;5.65;94.46
29433;BME280;16405;53.964;13.448;2023-02-13T03:43:09;103144.66;;;5.64;93.99
29433;BME280;16405;53.964;13.448;2023-02-13T03:45:42;103153.41;;;5.67;94.15
29433;BME280;16405;53.964;13.448;2023-02-13T03:48:26;103146.41;;;5.65;94.03
29433;BME280;16405;53.964;13.448;2023-02-13T03:51:44;103149.91;;;5.67;93.59
29433;BME280;16405;53.964;13.448;2023-02-13T03:54:23;103157.72;;;5.65;93.20
29433;BME280;16405;53.964;13.448;2023-02-13T03:57:17;103153.38;;;5.66;93.08
29433;BME280;16405;53.964;13.448;2023-02-13T04:00:08;103155.13;;;5.67;92.99
29433;BME280;16405;53.964;13.448;2023-02-13T04:02:46;103159.56;;;5.71;92.73
29433;BME280;16405;53.964;13.448;2023-02-13T04:05:23;103163.00;;;5.70;92.87
29433;BME280;16405;53.964;13.448;2023-02-13T04:07:54;103162.16;;;5.71;92.71
29433;BME280;16405;53.964;13.448;2023-02-13T04:10:21;103165.63;;;5.70;92.52
29433;BME280;16405;53.964;13.448;2023-02-13T04:13:15;103161.28;;;5.70;92.70
29433;BME280;16405;53.964;13.448;2023-02-13T04:15:55;103161.28;;;5.69;92.65
29433;BME280;16405;53.964;13.448;2023-02-13T04:18:27;103169.06;;;5.66;92.87
29433;BME280;16405;53.964;13.448;2023-02-13T04:21:05;103169.06;;;5.66;92.95
29433;BME280;16405;53.964;13.448;2023-02-13T04:23:31;103163.81;;;5.63;92.99
29433;BME280;16405;53.964;13.448;2023-02-13T04:26:04;103162.06;;;5.62;92.56
29433;BME280;16405;53.964;13.448;2023-02-13T04:28:31;103155.03;;;5.59;92.93
29433;BME280;16405;53.964;13.448;2023-02-13T04:30:57;103160.25;;;5.58;93.19
29433;BME280;16405;53.964;13.448;2023-02-13T04:33:23;103159.41;;;5.60;93.04
29433;BME280;16405;53.964;13.448;2023-02-13T04:35:54;103162.94;;;5.62;93.17
29433;BME280;16405;53.964;13.448;2023-02-13T04:38:22;103158.53;;;5.60;92.99
29433;BME280;16405;53.964;13.448;2023-02-13T04:40:48;103160.28;;;5.61;92.67
29433;BME280;16405;53.964;13.448;2023-02-13T04:43:13;103152.41;;;5.59;92.53
29433;BME280;16405;53.964;13.448;2023-02-13T04:45:39;103164.63;;;5.59;92.75
29433;BME280;16405;53.964;13.448;2023-02-13T04:48:05;103159.38;;;5.59;92.62
29433;BME280;16405;53.964;13.448;2023-02-13T04:50:41;103159.31;;;5.51;92.50
29433;BME280;16405;53.964;13.448;2023-02-13T04:53:07;103155.78;;;5.50;92.80
29433;BME280;16405;53.964;13.448;2023-02-13T04:55:33;103152.34;;;5.51;92.91
29433;BME280;16405;53.964;13.448;2023-02-13T04:57:59;103159.28;;;5.49;93.41
29433;BME280;16405;53.964;13.448;2023-02-13T05:00:28;103152.28;;;5.48;93.55
29433;BME280;16405;53.964;13.448;2023-02-13T05:03:10;103156.66;;;5.49;93.28
29433;BME280;16405;53.964;13.448;2023-02-13T05:05:36;103158.41;;;5.49;93.49
29433;BME280;16405;53.964;13.448;2023-02-13T05:08:11;103154.06;;;5.49;93.20
29433;BME280;16405;53.964;13.448;2023-02-13T05:10:37;103162.72;;;5.48;93.30
29433;BME280;16405;53.964;13.448;2023-02-13T05:13:03;103165.34;;;5.48;92.85
29433;BME280;16405;53.964;13.448;2023-02-13T05:15:29;103162.72;;;5.47;92.73
29433;BME280;16405;53.964;13.448;2023-02-13T05:17:54;103162.75;;;5.50;92.91
29433;BME280;16405;53.964;13.448;2023-02-13T05:20:22;103167.13;;;5.49;92.34
29433;BME280;16405;53.964;13.448;2023-02-13T05:22:52;103159.31;;;5.52;92.11
29433;BME280;16405;53.964;13.448;2023-02-13T05:25:39;103166.28;;;5.52;91.93
29433;BME280;16405;53.964;13.448;2023-02-13T05:28:06;103163.69;;;5.53;92.24
29433;BME280;16405;53.964;13.448;2023-02-13T05:30:51;103170.63;;;5.51;91.83
29433;BME280;16405;53.964;13.448;2023-02-13T05:33:17;103170.59;;;5.50;91.89
29433;BME280;16405;53.964;13.448;2023-02-13T05:35:43;103166.25;;;5.50;91.86
29433;BME280;16405;53.964;13.448;2023-02-13T05:38:09;103173.25;;;5.51;91.61
29433;BME280;16405;53.964;13.448;2023-02-13T05:40:35;103177.53;;;5.48;91.25
29433;BME280;16405;53.964;13.448;2023-02-13T05:43:00;103174.94;;;5.48;91.48
29433;BME280;16405;53.964;13.448;2023-02-13T05:45:28;103170.50;;;5.42;90.59
29433;BME280;16405;53.964;13.448;2023-02-13T05:47:56;103181.91;;;5.49;90.65
29433;BME280;16405;53.964;13.448;2023-02-13T05:50:22;103185.44;;;5.51;90.78
29433;BME280;16405;53.964;13.448;2023-02-13T05:52:48;103186.31;;;5.51;90.87
29433;BME280;16405;53.964;13.448;2023-02-13T05:55:14;103193.34;;;5.55;91.16
29433;BME280;16405;53.964;13.448;2023-02-13T05:57:40;103186.28;;;5.50;91.10
29433;BME280;16405;53.964;13.448;2023-02-13T06:00:09;103195.84;;;5.49;91.02
29433;BME280;16405;53.964;13.448;2023-02-13T06:02:37;103202.75;;;5.46;90.52
29433;BME280;16405;53.964;13.448;2023-02-13T06:05:03;103205.41;;;5.47;90.61
29433;BME280;16405;53.964;13.448;2023-02-13T06:07:29;103207.22;;;5.51;90.70
29433;BME280;16405;53.964;13.448;2023-02-13T06:09:54;103202.81;;;5.50;90.81
29433;BME280;16405;53.964;13.448;2023-02-13T06:12:25;103206.34;;;5.51;90.61
29433;BME280;16405;53.964;13.448;2023-02-13T06:14:50;103206.34;;;5.51;90.37
29433;BME280;16405;53.964;13.448;2023-02-13T06:17:16;103211.56;;;5.52;90.16
29433;BME280;16405;53.964;13.448;2023-02-13T06:19:42;103197.63;;;5.52;90.33
29433;BME280;16405;53.964;13.448;2023-02-13T06:22:08;103198.41;;;5.46;89.77
29433;BME280;16405;53.964;13.448;2023-02-13T06:24:34;103202.78;;;5.44;89.74
29433;BME280;16405;53.964;13.448;2023-02-13T06:26:59;103194.94;;;5.44;89.60
29433;BME280;16405;53.964;13.448;2023-02-13T06:29:25;103201.09;;;5.49;89.86
29433;BME280;16405;53.964;13.448;2023-02-13T06:31:54;103199.38;;;5.51;89.61
29433;BME280;16405;53.964;13.448;2023-02-13T06:34:20;103197.59;;;5.50;89.57
29433;BME280;16405;53.964;13.448;2023-02-13T06:36:46;103196.72;;;5.50;89.53
29433;BME280;16405;53.964;13.448;2023-02-13T06:39:11;103208.97;;;5.54;89.63
29433;BME280;16405;53.964;13.448;2023-02-13T06:41:39;103210.72;;;5.53;89.62
29433;BME280;16405;53.964;13.448;2023-02-13T06:44:08;103203.72;;;5.52;89.83
29433;BME280;16405;53.964;13.448;2023-02-13T06:46:36;103210.66;;;5.50;90.00
29433;BME280;16405;53.964;13.448;2023-02-13T06:49:02;103210.59;;;5.46;89.76
29433;BME280;16405;53.964;13.448;2023-02-13T06:51:28;103214.16;;;5.49;89.68
29433;BME280;16405;53.964;13.448;2023-02-13T06:53:54;103213.22;;;5.46;89.37
29433;BME280;16405;53.964;13.448;2023-02-13T06:56:20;103214.94;;;5.42;89.46
29433;BME280;16405;53.964;13.448;2023-02-13T06:58:48;103215.84;;;5.46;89.33
29433;BME280;16405;53.964;13.448;2023-02-13T07:01:16;103215.06;;;5.51;89.00
29433;BME280;16405;53.964;13.448;2023-02-13T07:03:41;103220.25;;;5.50;88.90
29433;BME280;16405;53.964;13.448;2023-02-13T07:06:09;103217.63;;;5.50;88.76
29433;BME280;16405;53.964;13.448;2023-02-13T07:08:35;103219.38;;;5.49;88.52
29433;BME280;16405;53.964;13.448;2023-02-13T07:11:01;103220.25;;;5.50;88.27
29433;BME280;16405;53.964;13.448;2023-02-13T07:13:30;103213.28;;;5.50;88.17
29433;BME280;16405;53.964;13.448;2023-02-13T07:16:00;103215.06;;;5.51;87.97
29433;BME280;16405;53.964;13.448;2023-02-13T07:18:26;103226.44;;;5.55;88.22
29433;BME280;16405;53.964;13.448;2023-02-13T07:20:54;103223.81;;;5.55;87.93
29433;BME280;16405;53.964;13.448;2023-02-13T07:23:24;103229.13;;;5.60;88.38
29433;BME280;16405;53.964;13.448;2023-02-13T07:25:50;103230.91;;;5.64;88.29
29433;BME280;16405;53.964;13.448;2023-02-13T07:28:15;103228.28;;;5.62;88.17
29433;BME280;16405;53.964;13.448;2023-02-13T07:30:41;103230.03;;;5.65;87.94
29433;BME280;16405;53.964;13.448;2023-02-13T07:33:08;103229.22;;;5.69;87.73
29433;BME280;16405;53.964;13.448;2023-02-13T07:35:34;103224.94;;;5.72;88.08
29433;BME280;16405;53.964;13.448;2023-02-13T07:38:03;103224.97;;;5.75;88.12
29433;BME280;16405;53.964;13.448;2023-02-13T07:40:29;103230.22;;;5.79;88.11
29433;BME280;16405;53.964;13.448;2023-02-13T07:42:55;103218.94;;;5.83;87.99
29433;BME280;16405;53.964;13.448;2023-02-13T07:45:21;103223.38;;;5.85;88.01
29433;BME280;16405;53.964;13.448;2023-02-13T07:47:47;103232.09;;;5.89;87.61
29433;BME280;16405;53.964;13.448;2023-02-13T07:50:13;103222.56;;;5.92;87.58
29433;BME280;16405;53.964;13.448;2023-02-13T07:53:02;103229.56;;;5.93;87.48
29433;BME280;16405;53.964;13.448;2023-02-13T07:55:28;103233.97;;;5.94;87.20
29433;BME280;16405;53.964;13.448;2023-02-13T07:57:55;103230.47;;;5.95;87.21
29433;BME280;16405;53.964;13.448;2023-02-13T08:00:21;103233.97;;;5.96;87.67
29433;BME280;16405;53.964;13.448;2023-02-13T08:02:48;103239.28;;;6.01;87.71
29433;BME280;16405;53.964;13.448;2023-02-13T08:05:16;103243.66;;;6.03;87.29
29433;BME280;16405;53.964;13.448;2023-02-13T08:07:42;103241.03;;;6.02;87.06
29433;BME280;16405;53.964;13.448;2023-02-13T08:10:10;103247.19;;;6.07;87.13
29433;BME280;16405;53.964;13.448;2023-02-13T08:12:59;103239.38;;;6.10;87.38
29433;BME280;16405;53.964;13.448;2023-02-13T08:15:25;103244.66;;;6.11;86.96
29433;BME280;16405;53.964;13.448;2023-02-13T08:17:51;103242.09;;;6.16;86.88
29433;BME280;16405;53.964;13.448;2023-02-13T08:20:17;103247.34;;;6.19;86.92
29433;BME280;16405;53.964;13.448;2023-02-13T08:22:43;103238.66;;;6.23;86.83
29433;BME280;16405;53.964;13.448;2023-02-13T08:25:10;103243.06;;;6.24;86.92
29433;BME280;16405;53.964;13.448;2023-02-13T08:27:43;103240.41;;;6.23;86.70
29433;BME280;16405;53.964;13.448;2023-02-13T08:30:09;103242.19;;;6.25;86.64
29433;BME280;16405;53.964;13.448;2023-02-13T08:32:36;103248.34;;;6.30;86.22
29433;BME280;16405;53.964;13.448;2023-02-13T08:35:05;103247.50;;;6.31;86.11
29433;BME280;16405;53.964;13.448;2023-02-13T08:37:30;103247.50;;;6.34;86.75
29433;BME280;16405;53.964;13.448;2023-02-13T08:39:56;103255.41;;;6.39;86.20
29433;BME280;16405;53.964;13.448;2023-02-13T08:42:22;103246.75;;;6.42;86.23
29433;BME280;16405;53.964;13.448;2023-02-13T08:44:48;103258.09;;;6.45;86.28
29433;BME280;16405;53.964;13.448;2023-02-13T08:47:14;103259.88;;;6.46;86.17
29433;BME280;16405;53.964;13.448;2023-02-13T08:49:39;103265.97;;;6.47;85.27
29433;BME280;16405;53.964;13.448;2023-02-13T08:52:13;103262.56;;;6.52;85.33
29433;BME280;16405;53.964;13.448;2023-02-13T08:54:39;103263.47;;;6.54;85.11
29433;BME280;16405;53.964;13.448;2023-02-13T08:57:05;103266.06;;;6.56;84.91
29433;BME280;16405;53.964;13.448;2023-02-13T08:59:31;103273.94;;;6.57;84.42
29433;BME280;16405;53.964;13.448;2023-02-13T09:01:57;103267.03;;;6.61;84.32
29433;BME280;16405;53.964;13.448;2023-02-13T09:04:30;103260.97;;;6.65;84.68
29433;BME280;16405;53.964;13.448;2023-02-13T09:06:56;103268.81;;;6.65;84.59
29433;BME280;16405;53.964;13.448;2023-02-13T09:09:25;103275.88;;;6.74;84.27
29433;BME280;16405;53.964;13.448;2023-02-13T09:11:55;103269.78;;;6.76;84.81
29433;BME280;16405;53.964;13.448;2023-02-13T09:14:23;103266.28;;;6.74;84.11
29433;BME280;16405;53.964;13.448;2023-02-13T09:16:52;103270.69;;;6.80;83.79
29433;BME280;16405;53.964;13.448;2023-02-13T09:19:30;103270.75;;;6.86;83.78
29433;BME280;16405;53.964;13.448;2023-02-13T09:21:59;103265.56;;;6.89;83.62
29433;BME280;16405;53.964;13.448;2023-02-13T09:24:29;103264.72;;;6.93;84.05
29433;BME280;16405;53.964;13.448;2023-02-13T09:26:55;103277.81;;;6.95;83.89
29433;BME280;16405;53.964;13.448;2023-02-13T09:29:21;103275.25;;;7.01;83.57
29433;BME280;16405;53.964;13.448;2023-02-13T09:31:47;103270.94;;;7.05;83.45
29433;BME280;16405;53.964;13.448;2023-02-13T09:34:13;103280.56;;;7.09;83.40
29433;BME280;16405;53.964;13.448;2023-02-13T09:36:42;103283.19;;;7.09;82.89
29433;BME280;16405;53.964;13.448;2023-02-13T09:39:08;103279.72;;;7.11;83.36
29433;BME280;16405;53.964;13.448;2023-02-13T09:41:39;103283.25;;;7.15;83.01
29433;BME280;16405;53.964;13.448;2023-02-13T09:47:29;103283.25;;;7.18;82.60
29433;BME280;16405;53.964;13.448;2023-02-13T09:52:44;103278.97;;;7.26;82.35
29433;BME280;16405;53.964;13.448;2023-02-13T09:55:28;103282.47;;;7.30;82.16
29433;BME280;16405;53.964;13.448;2023-02-13T10:01:11;103287.72;;;7.30;82.02
29433;BME280;16405;53.964;13.448;2023-02-13T10:04:24;103280.72;;;7.27;81.74
29433;BME280;16405;53.964;13.448;2023-02-13T10:10:26;103300.84;;;7.31;81.86
29433;BME280;16405;53.964;13.448;2023-02-13T10:16:50;103295.69;;;7.39;81.49
29433;BME280;16405;53.964;13.448;2023-02-13T10:19:39;103290.47;;;7.45;81.86
29433;BME280;16405;53.964;13.448;2023-02-13T10:25:24;103293.97;;;7.47;81.37
29433;BME280;16405;53.964;13.448;2023-02-13T10:28:11;103294.84;;;7.49;81.13
29433;BME280;16405;53.964;13.448;2023-02-13T10:30:54;103294.03;;;7.52;80.99
29433;BME280;16405;53.964;13.448;2023-02-13T10:33:49;103289.66;;;7.52;80.68
29433;BME280;16405;53.964;13.448;2023-02-13T10:36:25;103295.81;;;7.59;80.46
29433;BME280;16405;53.964;13.448;2023-02-13T10:39:25;103289.75;;;7.65;80.76
29433;BME280;16405;53.964;13.448;2023-02-13T10:42:25;103293.22;;;7.64;80.98
29433;BME280;16405;53.964;13.448;2023-02-13T10:45:48;103292.34;;;7.66;80.60
29433;BME280;16405;53.964;13.448;2023-02-13T10:49:27;103283.63;;;7.66;80.53
29433;BME280;16405;53.964;13.448;2023-02-13T10:55:13;103287.19;;;7.75;80.44
29433;BME280;16405;53.964;13.448;2023-02-13T10:58:32;103287.19;;;7.78;80.66
29433;BME280;16405;53.964;13.448;2023-02-13T11:04:27;103288.91;;;7.75;80.00
29433;BME280;16405;53.964;13.448;2023-02-13T11:07:08;103285.44;;;7.79;80.19
29433;BME280;16405;53.964;13.448;2023-02-13T11:09:46;103276.69;;;7.77;78.99
29433;BME280;16405;53.964;13.448;2023-02-13T11:12:29;103281.91;;;7.74;78.77
29433;BME280;16405;53.964;13.448;2023-02-13T11:15:00;103274.91;;;7.73;78.39
29433;BME280;16405;53.964;13.448;2023-02-13T11:17:34;103274.03;;;7.72;78.31
29433;BME280;16405;53.964;13.448;2023-02-13T11:20:34;103274.91;;;7.73;78.23
29433;BME280;16405;53.964;13.448;2023-02-13T11:26:03;103274.06;;;7.75;78.09
29433;BME280;16405;53.964;13.448;2023-02-13T11:28:58;103267.03;;;7.73;77.26
29433;BME280;16405;53.964;13.448;2023-02-13T11:31:33;103279.19;;;7.60;77.88
29433;BME280;16405;53.964;13.448;2023-02-13T11:34:24;103272.91;;;7.33;77.93
29433;BME280;16405;53.964;13.448;2023-02-13T11:39:43;103274.66;;;7.36;78.67
29433;BME280;16405;53.964;13.448;2023-02-13T11:45:00;103266.88;;;7.45;78.88
29433;BME280;16405;53.964;13.448;2023-02-13T11:47:41;103265.09;;;7.41;79.08
29433;BME280;16405;53.964;13.448;2023-02-13T11:50:32;103277.31;;;7.40;78.72
29433;BME280;16405;53.964;13.448;2023-02-13T11:53:22;103259.69;;;7.19;78.88
29433;BME280;16405;53.964;13.448;2023-02-13T11:56:07;103270.13;;;7.16;79.45
29433;BME280;16405;53.964;13.448;2023-02-13T11:58:35;103263.03;;;7.03;78.44
29433;BME280;16405;53.964;13.448;2023-02-13T12:04:14;103262.97;;;6.94;77.84
29433;BME280;16405;53.964;13.448;2023-02-13T12:06:41;103264.81;;;7.04;78.01
29433;BME280;16405;53.964;13.448;2023-02-13T12:09:22;103266.44;;;6.93;76.86
29433;BME280;16405;53.964;13.448;2023-02-13T12:12:00;103270.06;;;7.07;77.40
29433;BME280;16405;53.964;13.448;2023-02-13T12:14:42;103263.06;;;7.05;76.50
29433;BME280;16405;53.964;13.448;2023-02-13T12:17:22;103263.97;;;7.10;77.57
29433;BME280;16405;53.964;13.448;2023-02-13T12:19:51;103271.75;;;6.99;76.43
29433;BME280;16405;53.964;13.448;2023-02-13T12:25:24;103275.13;;;6.86;75.77
29433;BME280;16405;53.964;13.448;2023-02-13T12:28:22;103286.50;;;6.91;76.33
29433;BME280;16405;53.964;13.448;2023-02-13T12:31:07;103277.84;;;6.96;76.74
29433;BME280;16405;53.964;13.448;2023-02-13T12:37:28;103264.59;;;6.81;75.21
29433;BME280;16405;53.964;13.448;2023-02-13T12:52:14;103255.03;;;6.85;75.97
29433;BME280;16405;53.964;13.448;2023-02-13T13:06:39;103228.09;;;6.98;75.54
29433;BME280;16405;53.964;13.448;2023-02-13T13:09:44;103224.69;;;7.11;77.00
29433;BME280;16405;53.964;13.448;2023-02-13T13:12:38;103231.81;;;7.29;75.99
29433;BME280;16405;53.964;13.448;2023-02-13T13:15:44;103215.25;;;7.35;75.84
29433;BME280;16405;53.964;13.448;2023-02-13T13:27:21;103214.34;;;7.28;74.82
29433;BME280;16405;53.964;13.448;2023-02-13T13:30:23;103208.16;;;7.23;74.74
29433;BME280;16405;53.964;13.448;2023-02-13T13:33:16;103209.78;;;7.06;74.86
29433;BME280;16405;53.964;13.448;2023-02-13T13:45:17;103209.47;;;6.66;74.94
29433;BME280;16405;53.964;13.448;2023-02-13T13:50:27;103231.47;;;6.88;76.33
29433;BME280;16405;53.964;13.448;2023-02-13T13:53:11;103208.81;;;6.90;75.36
29433;BME280;16405;53.964;13.448;2023-02-13T13:58:44;103213.09;;;6.82;75.38
29433;BME280;16405;53.964;13.448;2023-02-13T14:01:15;103216.63;;;6.85;75.34
29433;BME280;16405;53.964;13.448;2023-02-13T14:03:46;103212.16;;;6.75;75.66
29433;BME280;16405;53.964;13.448;2023-02-13T14:06:25;103215.63;;;6.72;76.62
29433;BME280;16405;53.964;13.448;2023-02-13T14:09:06;103190.19;;;6.57;75.35
29433;BME280;16405;53.964;13.448;2023-02-13T14:11:41;103192.75;;;6.53;75.16
29433;BME280;16405;53.964;13.448;2023-02-13T14:17:03;103192.75;;;6.53;75.71
29433;BME280;16405;53.964;13.448;2023-02-13T14:19:46;103183.94;;;6.42;75.66
29433;BME280;16405;53.964;13.448;2023-02-13T14:22:37;103174.34;;;6.44;75.99
29433;BME280;16405;53.964;13.448;2023-02-13T14:25:06;103171.72;;;6.45;75.86
29433;BME280;16405;53.964;13.448;2023-02-13T14:37:22;103218.00;;;6.49;77.04
29433;BME280;16405;53.964;13.448;2023-02-13T14:42:59;103210.84;;;6.31;77.50
29433;BME280;16405;53.964;13.448;2023-02-13T14:49:35;103193.50;;;6.40;77.65
29433;BME280;16405;53.964;13.448;2023-02-13T14:52:49;103198.59;;;6.24;76.83
29433;BME280;16405;53.964;13.448;2023-02-13T14:58:35;103196.63;;;6.06;77.52
29433;BME280;16405;53.964;13.448;2023-02-13T15:05:06;103185.31;;;6.07;78.50
29433;BME280;16405;53.964;13.448;2023-02-13T15:08:20;103188.69;;;6.00;77.67
29433;BME280;16405;53.964;13.448;2023-02-13T15:11:08;103185.25;;;6.03;77.99
29433;BME280;16405;53.964;13.448;2023-02-13T15:13:54;103179.13;;;6.01;77.82
29433;BME280;16405;53.964;13.448;2023-02-13T15:16:29;103175.63;;;6.02;78.52
29433;BME280;16405;53.964;13.448;2023-02-13T15:19:15;103184.38;;;6.01;78.49
29433;BME280;16405;53.964;13.448;2023-02-13T15:21:53;103200.00;;;5.98;78.58
29433;BME280;16405;53.964;13.448;2023-02-13T15:24:37;103204.38;;;6.00;78.35
29433;BME280;16405;53.964;13.448;2023-02-13T15:27:35;103205.94;;;5.87;78.07
29433;BME280;16405;53.964;13.448;2023-02-13T15:30:27;103191.84;;;5.74;78.13
29433;BME280;16405;53.964;13.448;2023-02-13T15:33:18;103185.63;;;5.68;78.46
29433;BME280;16405;53.964;13.448;2023-02-13T15:36:04;103192.47;;;5.55;78.53
29433;BME280;16405;53.964;13.448;2023-02-13T15:38:36;103194.94;;;5.44;78.82
29433;BME280;16405;53.964;13.448;2023-02-13T15:41:05;103191.31;;;5.36;79.12
29433;BME280;16405;53.964;13.448;2023-02-13T15:43:56;103186.84;;;5.27;79.67
29433;BME280;16405;53.964;13.448;2023-02-13T15:46:35;103191.97;;;5.21;79.61
29433;BME280;16405;53.964;13.448;2023-02-13T15:49:17;103189.19;;;5.10;80.39
29433;BME280;16405;53.964;13.448;2023-02-13T15:51:47;103182.94;;;5.01;80.54
29433;BME280;16405;53.964;13.448;2023-02-13T15:54:27;103182.03;;;4.97;80.55
29433;BME280;16405;53.964;13.448;2023-02-13T15:57:04;103185.28;;;4.84;81.06